หน้าหลัก
METAR-TAF:

METAR-TAF

ท่าอากาศยาน :

กาโบโรเน, บอตสวานา

ละติจูด: 24-13S, ลองจิจูด: 025-55E, ความสูง: 1005 ม.

การสังเกตสภาพอากาศปัจจุบัน

รายงานได้ทำขึ้นเมื่อ 1 ชั่วโมงและ 14 นาทีที่แล้ว ณ เวลา 09:00 UTC
ลม 5 นอตจากตะวันออก/ตะวันออกเฉียงเหนือ, แปรผันระหว่างเหนือ และตะวันออก
อุณหภูมิ 25°C
ความชื้น 28%
ความกดอากาศ 1025 hPa
ทัศนวิสัย 10 กม. หรือมากกว่า
ไม่มีเมฆต่ำกว่า 1,500 ม. และไม่มีเมฆคิวมูโลนิมบัส

METAR: FBSK 180900Z 06005KT 010V100 CAVOK 25/05 Q1025 NOSIG

เวลา: 12:14 (10:14 UTC)

การพยากรณ์

รายงานได้ทำขึ้นเมื่อ 6 ชั่วโมงและ 14 นาทีที่แล้ว ณ เวลา 04:00 UTC
การพยากรณ์มีผลตั้งแต่วันที่ 18 ณ เวลา 06 UTC จนถึงวันที่ 19 ณ เวลา 12 UTC
ลม 5 นอตจากทิศทางซึ่งแปรผันได้
ทัศนวิสัย 10 กม. หรือมากกว่า
ไม่มีเมฆต่ำกว่า 1,500 ม. และไม่มีเมฆคิวมูโลนิมบัส
กำลังกลายเป็น
ตั้งแต่วันที่ 18 ณ เวลา 22 UTC จนถึงวันที่ 18 ณ เวลา 24 UTC
ลม 5 นอตจากตะวันออก

TAF: FBSK 180400Z 1806/1912 VRB05KT CAVOK BECMG 1822/1824 09005KT

สังเกตการณ์สภาพอากาศและพยากรณ์อากาศของสนามบินมากกว่า 4000 แห่ง (รายงาน METAR และ TAF).

สถานีที่ดูได้จะแสดงไว้ด้วยจุดสีเหลืองและสีแดงบนแผนที่.

เลื่อนเมาส์ไปเหนือจุดเพื่อดูชื่อสถานี.

แล้วคลิกเพื่อดูสังเกตการณ์และการพยากรณ์สภาพอากาศ.

ในการเปลี่ยนแผนที่: คลิกที่ปุ่มสีเขียวที่มีกากบาทสีดำเพื่อซูมเข้า; ที่ปุ่มสีเขียวที่มีขีดเพื่อซูมออก; หรือที่ลูกศรสีเขียวเพื่อไปยังแผนที่ที่อยู่ติดกัน.


METAR-TAF: